createdAt,value
2022-10-24T00:02:22.393Z,24.38
2022-10-24T00:04:53.011Z,21.45
2022-10-24T00:07:22.311Z,21.50
2022-10-24T00:09:51.412Z,27.73
2022-10-24T00:12:20.996Z,27.63
2022-10-24T00:14:50.114Z,34.72
2022-10-24T00:17:19.216Z,29.55
2022-10-24T00:19:48.290Z,23.23
2022-10-24T00:22:18.773Z,20.52
2022-10-24T00:24:47.924Z,17.98
2022-10-24T00:27:17.256Z,19.23
2022-10-24T00:29:46.572Z,24.98
2022-10-24T00:32:15.750Z,30.65
2022-10-24T00:34:44.881Z,27.23
2022-10-24T00:37:13.928Z,24.35
2022-10-24T00:39:44.698Z,23.65
2022-10-24T00:42:14.263Z,22.67
2022-10-24T00:44:44.767Z,20.58
2022-10-24T00:47:18.543Z,25.05
2022-10-24T00:49:53.353Z,20.50
2022-10-24T00:52:27.926Z,16.95
2022-10-24T00:55:02.589Z,16.27
2022-10-24T00:57:36.813Z,14.63
2022-10-24T01:00:11.217Z,14.10
2022-10-24T01:02:40.833Z,14.52
2022-10-24T01:05:12.381Z,15.90
2022-10-24T01:07:55.108Z,19.45
2022-10-24T01:10:39.015Z,20.73
2022-10-24T01:13:21.015Z,16.35
2022-10-24T01:15:54.877Z,15.70
2022-10-24T01:18:32.142Z,14.45
2022-10-24T01:21:25.068Z,14.90
2022-10-24T01:24:33.972Z,14.45
2022-10-24T01:27:56.819Z,16.85
2022-10-24T01:30:31.667Z,23.17
2022-10-24T01:33:07.803Z,24.10
2022-10-24T01:35:44.116Z,28.42
2022-10-24T01:38:23.632Z,28.88
2022-10-24T01:40:58.077Z,25.48
2022-10-24T01:43:32.726Z,25.10
2022-10-24T01:46:09.627Z,28.85
2022-10-24T01:48:44.983Z,28.30
2022-10-24T01:51:18.794Z,23.80
2022-10-24T01:53:49.007Z,20.30
2022-10-24T01:56:18.109Z,22.15
2022-10-24T01:58:47.203Z,23.02
2022-10-24T02:01:26.200Z,24.38
2022-10-24T02:03:59.486Z,24.85
2022-10-24T02:06:34.901Z,29.80
2022-10-24T02:09:09.995Z,35.70
2022-10-24T02:11:40.184Z,32.83
2022-10-24T02:14:16.014Z,36.55
2022-10-24T02:16:47.871Z,42.35
2022-10-24T02:19:17.779Z,37.92
2022-10-24T02:22:02.958Z,28.17
2022-10-24T02:24:39.612Z,25.60
2022-10-24T02:27:15.510Z,23.17
2022-10-24T02:29:52.858Z,20.75
2022-10-24T02:32:30.839Z,19.42
2022-10-24T02:35:01.880Z,19.55
2022-10-24T02:37:33.404Z,18.65
2022-10-24T02:40:06.462Z,19.55
2022-10-24T02:42:36.725Z,18.83
2022-10-24T02:45:07.673Z,22.27
2022-10-24T02:47:41.550Z,22.77
2022-10-24T02:50:11.768Z,23.25
2022-10-24T02:52:42.685Z,23.48
2022-10-24T02:55:12.946Z,23.92
2022-10-24T02:57:42.084Z,23.35
2022-10-24T03:00:13.058Z,24.73
2022-10-24T03:02:43.769Z,23.23
2022-10-24T03:05:12.974Z,23.58
2022-10-24T03:07:41.983Z,21.73
2022-10-24T03:10:11.559Z,20.13
2022-10-24T03:12:40.635Z,18.67
2022-10-24T03:15:10.932Z,18.50
2022-10-24T03:17:40.116Z,15.55
2022-10-24T03:20:11.579Z,14.27
2022-10-24T03:22:40.657Z,19.38
2022-10-24T03:25:11.741Z,21.10
2022-10-24T03:27:40.879Z,24.67
2022-10-24T03:30:11.821Z,24.05
2022-10-24T03:32:40.995Z,23.73
2022-10-24T03:35:14.081Z,24.58
2022-10-24T03:37:44.064Z,18.83
2022-10-24T03:40:14.057Z,18.05
2022-10-24T03:42:43.575Z,13.07
2022-10-24T03:45:13.119Z,13.27
2022-10-24T03:47:42.569Z,13.98
2022-10-24T03:50:13.138Z,16.75
2022-10-24T03:52:42.392Z,13.07
2022-10-24T03:55:12.804Z,12.27
2022-10-24T03:57:42.153Z,13.45
2022-10-24T04:00:12.728Z,14.10
2022-10-24T04:02:43.869Z,14.00
2022-10-24T04:05:15.128Z,16.80
2022-10-24T04:07:44.503Z,17.27
2022-10-24T04:10:13.773Z,18.13
2022-10-24T04:12:42.823Z,17.13
2022-10-24T04:15:13.618Z,18.10
2022-10-24T04:17:43.237Z,17.73
2022-10-24T04:20:19.433Z,16.90
2022-10-24T04:22:49.200Z,16.63
2022-10-24T04:25:20.280Z,16.70
2022-10-24T04:27:49.459Z,17.88
2022-10-24T04:30:20.354Z,14.82
2022-10-24T04:32:49.515Z,14.93
2022-10-24T04:35:21.230Z,14.60
2022-10-24T04:37:50.323Z,14.05
2022-10-24T04:40:19.981Z,14.52
2022-10-24T04:42:49.085Z,14.05
2022-10-24T04:45:18.387Z,12.73
2022-10-24T04:47:47.862Z,13.00
2022-10-24T04:50:17.189Z,12.05
2022-10-24T04:52:48.217Z,12.82
2022-10-24T04:55:17.609Z,13.93
2022-10-24T04:57:46.914Z,15.35
2022-10-24T05:00:17.350Z,18.05
2022-10-24T05:02:46.569Z,20.77
2022-10-24T05:05:17.168Z,22.30
2022-10-24T05:07:49.096Z,30.42
2022-10-24T05:10:18.717Z,40.25
2022-10-24T05:12:48.052Z,43.28
2022-10-24T05:15:18.640Z,45.60
2022-10-24T05:17:47.686Z,46.33
2022-10-24T05:20:16.768Z,41.33
2022-10-24T05:22:46.218Z,33.78
2022-10-24T05:25:17.101Z,27.70
2022-10-24T05:27:46.275Z,29.35
2022-10-24T05:30:15.853Z,27.95
2022-10-24T05:32:46.363Z,23.42
2022-10-24T05:35:16.069Z,22.63
2022-10-24T05:37:45.193Z,21.80
2022-10-24T05:40:14.503Z,21.63
2022-10-24T05:42:45.242Z,23.17
2022-10-24T05:45:14.499Z,20.30
2022-10-24T05:47:43.852Z,19.27
2022-10-24T05:50:13.190Z,18.27
2022-10-24T05:52:46.209Z,20.02
2022-10-24T05:55:18.196Z,18.80
2022-10-24T05:57:49.082Z,17.65
2022-10-24T06:00:18.800Z,18.40
2022-10-24T06:02:48.086Z,16.45
2022-10-24T06:05:17.182Z,19.52
2022-10-24T06:07:47.391Z,18.48
2022-10-24T06:10:16.915Z,20.60
2022-10-24T06:12:46.202Z,19.10
2022-10-24T06:15:16.876Z,18.42
2022-10-24T06:17:46.073Z,17.42
2022-10-24T06:20:15.286Z,18.80
2022-10-24T06:22:46.234Z,17.33
2022-10-24T06:25:15.880Z,18.70
2022-10-24T06:27:45.193Z,17.10
2022-10-24T06:30:14.370Z,18.23
2022-10-24T06:32:44.984Z,18.50
2022-10-24T06:35:15.950Z,19.35
2022-10-24T06:37:48.004Z,17.73
2022-10-24T06:40:18.275Z,18.20
2022-10-24T06:42:47.567Z,17.60
2022-10-24T06:45:18.557Z,16.20
2022-10-24T06:47:53.232Z,16.88
2022-10-24T06:50:23.558Z,16.70
2022-10-24T06:52:52.668Z,17.10
2022-10-24T06:55:21.998Z,16.20
2022-10-24T06:57:51.170Z,16.67
2022-10-24T07:00:20.743Z,15.07
2022-10-24T07:02:51.256Z,14.60
2022-10-24T07:05:20.793Z,15.15
2022-10-24T07:07:49.862Z,14.30
2022-10-24T07:10:19.198Z,13.00
2022-10-24T07:12:48.482Z,13.75
2022-10-24T07:15:17.903Z,13.10
2022-10-24T07:17:47.161Z,13.45
2022-10-24T07:20:17.637Z,14.52
2022-10-24T07:22:47.076Z,13.73
2022-10-24T07:25:17.003Z,12.75
2022-10-24T07:27:46.039Z,12.10
2022-10-24T07:30:19.250Z,12.95
2022-10-24T07:32:48.733Z,12.45
2022-10-24T07:35:19.325Z,11.25
2022-10-24T07:37:48.915Z,10.32
2022-10-24T07:40:18.225Z,10.57
2022-10-24T07:42:48.522Z,8.57
2022-10-24T07:45:17.646Z,7.15
2022-10-24T07:47:47.152Z,8.05
2022-10-24T07:50:18.376Z,6.95
2022-10-24T07:52:47.433Z,6.72
2022-10-24T07:55:16.651Z,6.72
2022-10-24T07:57:46.018Z,6.35
2022-10-24T08:00:17.185Z,8.05
2022-10-24T08:02:46.282Z,7.63
2022-10-24T08:05:17.179Z,7.07
2022-10-24T08:07:56.023Z,8.30
2022-10-24T08:10:40.271Z,7.47
2022-10-24T08:13:11.585Z,7.97
2022-10-24T08:15:42.677Z,8.32
2022-10-24T08:18:11.779Z,8.90
2022-10-24T08:20:40.804Z,8.57
2022-10-24T08:23:11.304Z,8.82
2022-10-24T08:25:42.387Z,8.30
2022-10-24T08:28:11.474Z,7.75
2022-10-24T08:30:40.531Z,7.65
2022-10-24T08:33:09.587Z,7.90
2022-10-24T08:35:39.368Z,7.47
2022-10-24T08:38:10.035Z,6.97
2022-10-24T08:40:39.863Z,7.50
2022-10-24T08:43:11.014Z,7.20
2022-10-24T08:45:53.193Z,7.28
2022-10-24T08:48:29.151Z,6.45
2022-10-24T08:51:10.152Z,5.07
2022-10-24T08:53:41.914Z,6.55
2022-10-24T08:56:12.960Z,5.80
2022-10-24T08:58:46.040Z,5.57
2022-10-24T09:01:22.671Z,5.80
2022-10-24T09:03:56.625Z,5.05
2022-10-24T09:06:30.095Z,5.35
2022-10-24T09:09:04.027Z,5.22
2022-10-24T09:11:45.566Z,4.47
2022-10-24T09:14:17.518Z,5.53
2022-10-24T09:16:53.346Z,5.38
2022-10-24T09:19:25.182Z,5.43
2022-10-24T09:21:56.713Z,5.40
2022-10-24T09:24:35.231Z,5.60
2022-10-24T09:27:10.504Z,6.63
2022-10-24T09:29:40.092Z,5.88
2022-10-24T09:32:17.629Z,6.07
2022-10-24T09:34:47.267Z,6.15
2022-10-24T09:37:40.398Z,7.07
2022-10-24T09:40:23.848Z,7.13
2022-10-24T09:43:01.318Z,7.32
2022-10-24T09:45:40.925Z,6.70
2022-10-24T09:48:26.065Z,7.07
2022-10-24T09:51:00.311Z,6.45
2022-10-24T09:53:33.453Z,7.03
2022-10-24T09:56:11.353Z,6.30
2022-10-24T09:58:41.661Z,6.15
2022-10-24T10:01:22.813Z,6.82
2022-10-24T10:04:09.038Z,6.38
2022-10-24T10:06:46.058Z,6.63
2022-10-24T10:09:17.640Z,6.10
2022-10-24T10:12:03.642Z,6.22
2022-10-24T10:14:33.080Z,6.53
2022-10-24T10:17:05.915Z,5.65
2022-10-24T10:19:39.143Z,5.95
2022-10-24T10:22:25.808Z,6.00
2022-10-24T10:24:55.770Z,6.15
2022-10-24T10:27:34.306Z,6.22
2022-10-24T10:30:17.729Z,6.57
2022-10-24T10:33:02.047Z,5.60
2022-10-24T10:35:40.415Z,5.90
2022-10-24T10:38:33.259Z,6.43
2022-10-24T10:41:08.560Z,5.18
2022-10-24T10:43:49.104Z,5.93
2022-10-24T10:46:28.224Z,4.90
2022-10-24T10:49:11.758Z,5.18
2022-10-24T10:51:49.007Z,5.47
2022-10-24T10:54:40.517Z,5.97
2022-10-24T10:57:14.461Z,4.82
2022-10-24T10:59:57.164Z,5.10
2022-10-24T11:02:59.662Z,5.55
2022-10-24T11:05:44.701Z,5.25
2022-10-24T11:08:41.076Z,5.22
2022-10-24T11:11:17.422Z,5.00
2022-10-24T11:13:54.108Z,4.68
2022-10-24T11:16:30.055Z,3.97
2022-10-24T11:19:06.229Z,4.30
2022-10-24T11:21:39.359Z,4.80
2022-10-24T11:24:15.915Z,4.80
2022-10-24T11:26:51.678Z,4.63
2022-10-24T11:29:32.289Z,4.70
2022-10-24T11:32:11.961Z,4.53
2022-10-24T11:34:46.995Z,5.05
2022-10-24T11:37:21.803Z,4.57
2022-10-24T11:39:58.178Z,5.38
2022-10-24T11:42:35.333Z,5.18
2022-10-24T11:45:11.549Z,4.97
2022-10-24T11:48:13.385Z,5.80
2022-10-24T11:50:51.125Z,5.05
2022-10-24T11:53:48.761Z,5.43
2022-10-24T11:56:27.374Z,5.93
2022-10-24T11:59:01.425Z,6.35
2022-10-24T12:01:56.636Z,5.72
2022-10-24T12:05:02.656Z,5.10
2022-10-24T12:08:32.340Z,5.45
2022-10-24T12:11:16.529Z,5.32
2022-10-24T12:14:14.355Z,5.03
2022-10-24T12:17:05.592Z,5.28
2022-10-24T12:19:36.880Z,5.50
2022-10-24T12:22:08.410Z,6.05
2022-10-24T12:24:39.212Z,5.93
2022-10-24T12:27:29.643Z,5.65
2022-10-24T12:30:14.765Z,6.07
2022-10-24T12:32:48.504Z,5.88
2022-10-24T12:35:51.879Z,6.70
2022-10-24T12:39:10.395Z,8.70
2022-10-24T12:41:44.983Z,5.97
2022-10-24T12:44:41.170Z,6.07
2022-10-24T12:47:38.583Z,5.78
2022-10-24T12:51:03.465Z,6.43
2022-10-24T12:54:15.591Z,5.53
2022-10-24T12:57:29.118Z,5.78
2022-10-24T12:59:59.653Z,5.97
2022-10-24T13:02:56.920Z,6.50
2022-10-24T13:05:50.221Z,5.68
2022-10-24T13:08:37.212Z,6.28
2022-10-24T13:11:25.375Z,6.00
2022-10-24T13:14:30.784Z,6.32
2022-10-24T13:17:08.455Z,5.90
2022-10-24T13:19:38.028Z,6.68
2022-10-24T13:22:27.339Z,5.72
2022-10-24T13:24:57.456Z,6.05
2022-10-24T13:27:33.219Z,5.65
2022-10-24T13:30:35.969Z,5.70
2022-10-24T13:33:43.190Z,5.18
2022-10-24T13:36:18.730Z,5.22
2022-10-24T13:38:53.360Z,5.35
2022-10-24T13:41:30.567Z,5.75
2022-10-24T13:44:07.732Z,6.03
2022-10-24T13:46:46.886Z,5.97
2022-10-24T13:49:24.774Z,5.88
2022-10-24T13:51:58.039Z,5.82
2022-10-24T13:54:31.374Z,6.22
2022-10-24T13:57:02.239Z,5.60
2022-10-24T13:59:35.184Z,5.40
2022-10-24T14:02:09.593Z,5.45
2022-10-24T14:04:39.842Z,5.03
2022-10-24T14:07:10.295Z,5.53
2022-10-24T14:09:44.870Z,5.32
2022-10-24T14:12:21.216Z,5.60
2022-10-24T14:14:52.888Z,5.10
2022-10-24T14:17:26.983Z,5.28
2022-10-24T14:20:00.143Z,5.82
2022-10-24T14:22:36.831Z,5.03
2022-10-24T14:25:07.193Z,6.00
2022-10-24T14:27:37.221Z,5.63
2022-10-24T14:30:10.960Z,5.60
2022-10-24T14:32:44.204Z,5.35
2022-10-24T14:35:14.806Z,5.90
2022-10-24T14:37:45.037Z,4.78
2022-10-24T14:40:19.083Z,5.38
2022-10-24T14:42:49.293Z,5.03
2022-10-24T14:45:27.521Z,5.88
2022-10-24T14:48:00.642Z,4.97
2022-10-24T14:50:43.561Z,4.50
2022-10-24T14:53:28.804Z,4.57
2022-10-24T14:56:00.421Z,4.18
2022-10-24T14:58:33.540Z,4.78
2022-10-24T15:01:04.209Z,4.55
2022-10-24T15:03:51.203Z,5.05
2022-10-24T15:06:26.884Z,4.82
2022-10-24T15:09:05.682Z,4.60
2022-10-24T15:11:40.021Z,9.18
2022-10-24T15:14:34.400Z,7.63
2022-10-24T15:17:25.762Z,9.60
2022-10-24T15:20:01.892Z,7.97
2022-10-24T15:22:34.230Z,7.70
2022-10-24T15:25:06.472Z,7.85
2022-10-24T15:27:45.978Z,7.28
2022-10-24T15:30:20.135Z,7.63
2022-10-24T15:32:51.685Z,6.82
2022-10-24T15:35:22.572Z,7.03
2022-10-24T15:37:57.614Z,7.07
2022-10-24T15:40:30.747Z,6.47
2022-10-24T15:43:00.004Z,7.13
2022-10-24T15:45:29.612Z,6.43
2022-10-24T15:47:58.848Z,6.38
2022-10-24T15:50:29.517Z,6.53
2022-10-24T15:53:01.866Z,7.72
2022-10-24T15:55:32.869Z,7.30
2022-10-24T15:58:03.165Z,6.95
2022-10-24T16:00:32.251Z,6.53
2022-10-24T16:03:04.463Z,6.70
2022-10-24T16:05:39.244Z,6.88
2022-10-24T16:08:14.623Z,7.45
2022-10-24T16:10:44.699Z,7.50
2022-10-24T16:13:15.852Z,6.15
2022-10-24T16:15:46.307Z,6.30
2022-10-24T16:18:15.381Z,6.50
2022-10-24T16:20:46.029Z,7.32
2022-10-24T16:23:17.548Z,8.82
2022-10-24T16:25:47.051Z,7.18
2022-10-24T16:28:22.752Z,7.15
2022-10-24T16:30:53.916Z,6.38
2022-10-24T16:33:23.082Z,6.97
2022-10-24T16:35:53.532Z,6.97
2022-10-24T16:38:22.926Z,6.63
2022-10-24T16:40:51.987Z,8.23
2022-10-24T16:43:21.493Z,9.90
2022-10-24T16:45:59.158Z,10.57
2022-10-24T16:48:29.674Z,7.10
2022-10-24T16:51:00.251Z,7.13
2022-10-24T16:53:29.353Z,7.10
2022-10-24T16:56:00.087Z,8.98
2022-10-24T16:58:29.205Z,8.18
2022-10-24T17:01:05.356Z,10.02
2022-10-24T17:03:34.868Z,9.77
2022-10-24T17:06:07.906Z,9.88
2022-10-24T17:08:37.331Z,9.20
2022-10-24T17:11:20.241Z,8.05
2022-10-24T17:13:55.987Z,7.75
2022-10-24T17:16:25.561Z,7.22
2022-10-24T17:19:12.256Z,8.15
2022-10-24T17:21:48.036Z,8.82
2022-10-24T17:24:20.511Z,8.40
2022-10-24T17:26:54.718Z,9.27
2022-10-24T17:29:28.062Z,10.70
2022-10-24T17:31:57.841Z,9.65
2022-10-24T17:34:28.384Z,8.10
2022-10-24T17:37:07.907Z,7.55
2022-10-24T17:39:47.078Z,9.20
2022-10-24T17:42:16.637Z,8.38
2022-10-24T17:44:47.729Z,8.90
2022-10-24T17:47:17.380Z,8.23
2022-10-24T17:49:47.067Z,8.20
2022-10-24T17:52:23.971Z,9.50
2022-10-24T17:54:53.421Z,10.25
2022-10-24T17:57:22.776Z,10.07
2022-10-24T17:59:54.331Z,9.55
2022-10-24T18:02:23.947Z,10.43
2022-10-24T18:04:53.643Z,11.82
2022-10-24T18:07:24.224Z,17.83
2022-10-24T18:10:00.132Z,17.30
2022-10-24T18:12:29.285Z,18.08
2022-10-24T18:14:59.037Z,20.65
2022-10-24T18:17:29.166Z,21.25
2022-10-24T18:19:58.441Z,23.50
2022-10-24T18:22:31.475Z,22.52
2022-10-24T18:25:00.748Z,21.50
2022-10-24T18:27:30.808Z,19.17
2022-10-24T18:30:03.892Z,19.55
2022-10-24T18:32:33.162Z,19.17
2022-10-24T18:35:02.463Z,18.95
2022-10-24T18:37:36.002Z,18.33
2022-10-24T18:40:07.014Z,15.82
2022-10-24T18:42:44.799Z,14.57
2022-10-24T18:45:20.433Z,4.07
2022-10-24T18:47:50.549Z,3.60
2022-10-24T18:50:22.245Z,2.97
2022-10-24T18:53:02.575Z,2.97
2022-10-24T18:55:34.070Z,2.25
2022-10-24T18:58:04.263Z,2.15
2022-10-24T19:00:38.146Z,1.80
2022-10-24T19:03:21.925Z,2.10
2022-10-24T19:05:58.348Z,2.22
2022-10-24T19:08:30.610Z,2.73
2022-10-24T19:11:01.468Z,2.60
2022-10-24T19:13:32.003Z,2.33
2022-10-24T19:16:04.078Z,2.40
2022-10-24T19:18:36.935Z,2.45
2022-10-24T19:21:06.619Z,2.65
2022-10-24T19:23:37.696Z,2.15
2022-10-24T19:26:08.081Z,2.53
2022-10-24T19:28:37.289Z,2.30
2022-10-24T19:31:07.784Z,2.63
2022-10-24T19:33:37.384Z,2.53
2022-10-24T19:36:07.636Z,3.13
2022-10-24T19:38:38.356Z,3.60
2022-10-24T19:41:11.327Z,3.75
2022-10-24T19:43:40.492Z,4.20
2022-10-24T19:46:24.930Z,4.32
2022-10-24T19:48:55.323Z,5.30
2022-10-24T19:51:25.316Z,6.97
2022-10-24T19:53:57.100Z,7.07
2022-10-24T19:56:29.085Z,5.82
2022-10-24T19:58:58.391Z,5.50
2022-10-24T20:01:31.113Z,4.55
2022-10-24T20:04:02.000Z,4.25
2022-10-24T20:06:31.329Z,3.92
2022-10-24T20:09:02.564Z,5.30
2022-10-24T20:11:31.932Z,4.18
2022-10-24T20:14:01.527Z,3.92
2022-10-24T20:16:30.536Z,3.17
2022-10-24T20:18:59.669Z,3.80
2022-10-24T20:21:28.736Z,4.18
2022-10-24T20:23:57.801Z,4.85
2022-10-24T20:26:28.686Z,5.10
2022-10-24T20:28:58.926Z,4.90
2022-10-24T20:31:30.631Z,4.95
2022-10-24T20:34:06.726Z,4.63
2022-10-24T20:36:38.779Z,5.22
2022-10-24T20:39:09.061Z,4.55
2022-10-24T20:41:39.883Z,4.60
2022-10-24T20:44:08.996Z,4.60
2022-10-24T20:46:38.133Z,4.53
2022-10-24T20:49:07.362Z,4.28
2022-10-24T20:51:36.534Z,4.35
2022-10-24T20:54:09.480Z,4.63
2022-10-24T20:56:42.483Z,4.30
2022-10-24T20:59:14.247Z,4.40
2022-10-24T21:01:44.636Z,5.00
2022-10-24T21:04:16.969Z,4.40
2022-10-24T21:06:49.197Z,4.97
2022-10-24T21:09:18.248Z,5.65
2022-10-24T21:11:48.861Z,5.25
2022-10-24T21:14:20.764Z,6.00
2022-10-24T21:16:51.186Z,5.40
2022-10-24T21:19:20.415Z,5.57
2022-10-24T21:21:49.542Z,4.78
2022-10-24T21:24:19.700Z,4.35
2022-10-24T21:26:50.192Z,4.40
2022-10-24T21:29:32.906Z,4.15
2022-10-24T21:32:03.066Z,4.20
2022-10-24T21:34:34.501Z,3.42
2022-10-24T21:37:05.333Z,4.65
2022-10-24T21:39:34.364Z,3.78
2022-10-24T21:42:06.101Z,3.67
2022-10-24T21:44:35.950Z,3.85
2022-10-24T21:47:05.356Z,3.88
2022-10-24T21:49:34.543Z,3.83
2022-10-24T21:52:03.638Z,3.42
2022-10-24T21:54:33.076Z,3.45
2022-10-24T21:57:02.187Z,3.70
2022-10-24T21:59:32.852Z,4.30
2022-10-24T22:02:02.053Z,3.75
2022-10-24T22:04:31.169Z,4.10
2022-10-24T22:07:00.171Z,4.00
2022-10-24T22:09:29.563Z,4.13
2022-10-24T22:11:58.772Z,4.45
2022-10-24T22:14:27.870Z,4.57
2022-10-24T22:16:58.292Z,4.97
2022-10-24T22:19:27.548Z,5.40
2022-10-24T22:21:56.708Z,6.03
2022-10-24T22:24:26.373Z,4.65
2022-10-24T22:26:55.588Z,4.78
2022-10-24T22:29:25.676Z,5.47
2022-10-24T22:31:57.630Z,5.53
2022-10-24T22:34:28.501Z,5.70
2022-10-24T22:37:12.644Z,5.47
2022-10-24T22:39:42.914Z,5.97
2022-10-24T22:42:16.036Z,5.80
2022-10-24T22:44:50.954Z,6.15
2022-10-24T22:48:10.743Z,5.47
2022-10-24T22:53:24.210Z,5.78
2022-10-24T22:56:15.273Z,5.05
2022-10-24T22:58:46.779Z,4.93
2022-10-24T23:01:37.001Z,5.22
2022-10-24T23:04:21.858Z,5.07
2022-10-24T23:06:57.260Z,4.95
2022-10-24T23:09:26.401Z,5.25
2022-10-24T23:11:56.704Z,6.55
2022-10-24T23:14:26.624Z,5.15
2022-10-24T23:17:00.169Z,5.50
2022-10-24T23:19:34.464Z,5.53
2022-10-24T23:22:12.728Z,5.72
2022-10-24T23:24:42.525Z,5.00
2022-10-24T23:27:29.256Z,5.25
2022-10-24T23:29:59.044Z,5.00
2022-10-24T23:32:31.304Z,5.68
2022-10-24T23:35:02.972Z,5.68
2022-10-24T23:37:35.260Z,7.07
2022-10-24T23:40:20.160Z,8.30
2022-10-24T23:42:50.543Z,7.43
2022-10-24T23:45:22.973Z,7.05
2022-10-24T23:48:14.648Z,7.45
2022-10-24T23:50:57.215Z,10.13
2022-10-24T23:53:37.489Z,9.75
2022-10-24T23:56:10.124Z,9.82
2022-10-24T23:58:39.192Z,8.73
